sensor_id;sensor_type;location;lat;lon;timestamp;P1;durP1;ratioP1;P2;durP2;ratioP2
46897;SDS011;32646;50.958;6.258;2023-07-16T00:01:44;3.38;;;1.25;;
46897;SDS011;32646;50.958;6.258;2023-07-16T00:04:11;6.03;;;1.30;;
46897;SDS011;32646;50.958;6.258;2023-07-16T00:06:37;3.75;;;1.30;;
46897;SDS011;32646;50.958;6.258;2023-07-16T00:09:04;4.35;;;1.17;;
46897;SDS011;32646;50.958;6.258;2023-07-16T00:11:31;4.93;;;1.40;;
46897;SDS011;32646;50.958;6.258;2023-07-16T00:13:57;7.30;;;1.30;;
46897;SDS011;32646;50.958;6.258;2023-07-16T00:16:24;3.13;;;1.10;;
46897;SDS011;32646;50.958;6.258;2023-07-16T00:18:51;5.63;;;1.38;;
46897;SDS011;32646;50.958;6.258;2023-07-16T00:21:18;3.75;;;1.30;;
46897;SDS011;32646;50.958;6.258;2023-07-16T00:23:44;4.80;;;1.23;;
46897;SDS011;32646;50.958;6.258;2023-07-16T00:26:12;3.85;;;1.10;;
46897;SDS011;32646;50.958;6.258;2023-07-16T00:28:39;3.90;;;1.42;;
46897;SDS011;32646;50.958;6.258;2023-07-16T00:31:06;4.07;;;1.15;;
46897;SDS011;32646;50.958;6.258;2023-07-16T00:33:32;5.13;;;1.25;;
46897;SDS011;32646;50.958;6.258;2023-07-16T00:35:59;4.10;;;1.20;;
46897;SDS011;32646;50.958;6.258;2023-07-16T00:38:26;6.38;;;1.50;;
46897;SDS011;32646;50.958;6.258;2023-07-16T00:40:52;5.60;;;1.80;;
46897;SDS011;32646;50.958;6.258;2023-07-16T00:43:19;3.95;;;1.40;;
46897;SDS011;32646;50.958;6.258;2023-07-16T00:45:45;3.15;;;1.17;;
46897;SDS011;32646;50.958;6.258;2023-07-16T00:48:12;3.83;;;1.00;;
46897;SDS011;32646;50.958;6.258;2023-07-16T00:50:39;3.55;;;1.20;;
46897;SDS011;32646;50.958;6.258;2023-07-16T00:53:07;4.32;;;1.23;;
46897;SDS011;32646;50.958;6.258;2023-07-16T00:55:35;3.63;;;1.33;;
46897;SDS011;32646;50.958;6.258;2023-07-16T00:58:04;5.47;;;0.98;;
46897;SDS011;32646;50.958;6.258;2023-07-16T01:00:32;4.40;;;1.30;;
46897;SDS011;32646;50.958;6.258;2023-07-16T01:03:01;4.47;;;1.00;;
46897;SDS011;32646;50.958;6.258;2023-07-16T01:05:30;4.57;;;1.15;;
46897;SDS011;32646;50.958;6.258;2023-07-16T01:08:04;5.28;;;1.20;;
46897;SDS011;32646;50.958;6.258;2023-07-16T01:10:36;5.45;;;0.98;;
46897;SDS011;32646;50.958;6.258;2023-07-16T01:13:04;4.90;;;1.30;;
46897;SDS011;32646;50.958;6.258;2023-07-16T01:15:31;4.22;;;1.50;;
46897;SDS011;32646;50.958;6.258;2023-07-16T01:17:58;6.53;;;1.20;;
46897;SDS011;32646;50.958;6.258;2023-07-16T01:20:24;4.57;;;1.20;;
46897;SDS011;32646;50.958;6.258;2023-07-16T01:23:26;3.85;;;1.13;;
46897;SDS011;32646;50.958;6.258;2023-07-16T01:28:53;4.20;;;1.20;;
46897;SDS011;32646;50.958;6.258;2023-07-16T01:31:43;4.70;;;1.23;;
46897;SDS011;32646;50.958;6.258;2023-07-16T01:34:12;3.20;;;0.95;;
46897;SDS011;32646;50.958;6.258;2023-07-16T01:36:40;3.92;;;1.17;;
46897;SDS011;32646;50.958;6.258;2023-07-16T01:39:08;3.60;;;1.23;;
46897;SDS011;32646;50.958;6.258;2023-07-16T01:41:34;2.90;;;1.02;;
46897;SDS011;32646;50.958;6.258;2023-07-16T01:44:01;4.10;;;1.20;;
46897;SDS011;32646;50.958;6.258;2023-07-16T01:46:28;4.45;;;1.13;;
46897;SDS011;32646;50.958;6.258;2023-07-16T01:48:54;4.15;;;1.10;;
46897;SDS011;32646;50.958;6.258;2023-07-16T01:51:21;3.03;;;1.00;;
46897;SDS011;32646;50.958;6.258;2023-07-16T01:53:48;5.72;;;1.42;;
46897;SDS011;32646;50.958;6.258;2023-07-16T01:56:14;3.08;;;1.20;;
46897;SDS011;32646;50.958;6.258;2023-07-16T01:58:41;5.03;;;1.25;;
46897;SDS011;32646;50.958;6.258;2023-07-16T02:01:08;4.43;;;1.15;;
46897;SDS011;32646;50.958;6.258;2023-07-16T02:03:34;6.70;;;1.30;;
46897;SDS011;32646;50.958;6.258;2023-07-16T02:06:01;7.03;;;1.42;;
46897;SDS011;32646;50.958;6.258;2023-07-16T02:08:28;5.50;;;1.40;;
46897;SDS011;32646;50.958;6.258;2023-07-16T02:10:54;3.45;;;1.20;;
46897;SDS011;32646;50.958;6.258;2023-07-16T02:13:21;4.28;;;1.13;;
46897;SDS011;32646;50.958;6.258;2023-07-16T02:15:47;3.70;;;1.20;;
46897;SDS011;32646;50.958;6.258;2023-07-16T02:18:14;6.05;;;1.40;;
46897;SDS011;32646;50.958;6.258;2023-07-16T02:20:41;3.53;;;1.10;;
46897;SDS011;32646;50.958;6.258;2023-07-16T02:23:09;3.20;;;1.23;;
46897;SDS011;32646;50.958;6.258;2023-07-16T02:25:35;6.88;;;1.13;;
46897;SDS011;32646;50.958;6.258;2023-07-16T02:28:02;4.88;;;1.13;;
46897;SDS011;32646;50.958;6.258;2023-07-16T02:30:29;5.03;;;1.35;;
46897;SDS011;32646;50.958;6.258;2023-07-16T02:32:55;5.63;;;1.45;;
46897;SDS011;32646;50.958;6.258;2023-07-16T02:35:22;3.22;;;1.60;;
46897;SDS011;32646;50.958;6.258;2023-07-16T02:37:48;7.00;;;1.30;;
46897;SDS011;32646;50.958;6.258;2023-07-16T02:40:15;5.38;;;1.33;;
46897;SDS011;32646;50.958;6.258;2023-07-16T02:42:42;4.03;;;1.17;;
46897;SDS011;32646;50.958;6.258;2023-07-16T02:45:08;3.42;;;0.93;;
46897;SDS011;32646;50.958;6.258;2023-07-16T02:47:35;5.60;;;1.13;;
46897;SDS011;32646;50.958;6.258;2023-07-16T02:50:02;5.57;;;1.23;;
46897;SDS011;32646;50.958;6.258;2023-07-16T02:52:28;4.65;;;1.05;;
46897;SDS011;32646;50.958;6.258;2023-07-16T02:54:55;4.57;;;1.30;;
46897;SDS011;32646;50.958;6.258;2023-07-16T02:57:21;4.10;;;1.35;;
46897;SDS011;32646;50.958;6.258;2023-07-16T02:59:48;5.53;;;1.20;;
46897;SDS011;32646;50.958;6.258;2023-07-16T03:02:15;4.85;;;1.17;;
46897;SDS011;32646;50.958;6.258;2023-07-16T03:04:41;3.47;;;1.33;;
46897;SDS011;32646;50.958;6.258;2023-07-16T03:07:08;7.95;;;1.25;;
46897;SDS011;32646;50.958;6.258;2023-07-16T03:09:34;2.95;;;1.10;;
46897;SDS011;32646;50.958;6.258;2023-07-16T03:12:01;3.70;;;1.17;;
46897;SDS011;32646;50.958;6.258;2023-07-16T03:14:28;4.05;;;1.23;;
46897;SDS011;32646;50.958;6.258;2023-07-16T03:16:54;3.20;;;1.08;;
46897;SDS011;32646;50.958;6.258;2023-07-16T03:19:22;3.22;;;1.30;;
46897;SDS011;32646;50.958;6.258;2023-07-16T03:21:48;6.00;;;1.45;;
46897;SDS011;32646;50.958;6.258;2023-07-16T03:24:15;4.97;;;1.40;;
46897;SDS011;32646;50.958;6.258;2023-07-16T03:26:41;6.63;;;1.67;;
46897;SDS011;32646;50.958;6.258;2023-07-16T03:29:08;4.32;;;1.30;;
46897;SDS011;32646;50.958;6.258;2023-07-16T03:31:34;5.57;;;1.48;;
46897;SDS011;32646;50.958;6.258;2023-07-16T03:34:01;4.38;;;1.45;;
46897;SDS011;32646;50.958;6.258;2023-07-16T03:36:28;3.63;;;1.50;;
46897;SDS011;32646;50.958;6.258;2023-07-16T03:38:54;5.85;;;1.40;;
46897;SDS011;32646;50.958;6.258;2023-07-16T03:41:21;6.35;;;1.67;;
46897;SDS011;32646;50.958;6.258;2023-07-16T03:43:47;4.30;;;1.20;;
46897;SDS011;32646;50.958;6.258;2023-07-16T03:46:14;6.80;;;1.35;;
46897;SDS011;32646;50.958;6.258;2023-07-16T03:48:41;5.45;;;1.30;;
46897;SDS011;32646;50.958;6.258;2023-07-16T03:51:08;3.38;;;1.10;;
46897;SDS011;32646;50.958;6.258;2023-07-16T03:53:34;5.13;;;1.30;;
46897;SDS011;32646;50.958;6.258;2023-07-16T03:56:01;5.13;;;1.33;;
46897;SDS011;32646;50.958;6.258;2023-07-16T03:58:27;4.97;;;1.48;;
46897;SDS011;32646;50.958;6.258;2023-07-16T04:00:54;4.55;;;1.30;;
46897;SDS011;32646;50.958;6.258;2023-07-16T04:03:21;3.90;;;1.23;;
46897;SDS011;32646;50.958;6.258;2023-07-16T04:05:48;2.80;;;1.02;;
46897;SDS011;32646;50.958;6.258;2023-07-16T04:08:14;3.08;;;1.10;;
46897;SDS011;32646;50.958;6.258;2023-07-16T04:10:41;4.45;;;1.55;;
46897;SDS011;32646;50.958;6.258;2023-07-16T04:13:07;6.18;;;1.40;;
46897;SDS011;32646;50.958;6.258;2023-07-16T04:15:34;4.25;;;1.35;;
46897;SDS011;32646;50.958;6.258;2023-07-16T04:18:01;4.85;;;1.27;;
46897;SDS011;32646;50.958;6.258;2023-07-16T04:20:27;7.75;;;2.35;;
46897;SDS011;32646;50.958;6.258;2023-07-16T04:22:54;5.82;;;1.77;;
46897;SDS011;32646;50.958;6.258;2023-07-16T04:25:20;4.75;;;1.98;;
46897;SDS011;32646;50.958;6.258;2023-07-16T04:27:47;4.03;;;1.50;;
46897;SDS011;32646;50.958;6.258;2023-07-16T04:30:14;10.52;;;2.05;;
46897;SDS011;32646;50.958;6.258;2023-07-16T04:32:41;6.55;;;1.75;;
46897;SDS011;32646;50.958;6.258;2023-07-16T04:35:07;7.55;;;1.70;;
46897;SDS011;32646;50.958;6.258;2023-07-16T04:37:34;4.95;;;1.55;;
46897;SDS011;32646;50.958;6.258;2023-07-16T04:40:01;6.57;;;1.70;;
46897;SDS011;32646;50.958;6.258;2023-07-16T04:42:27;4.70;;;1.45;;
46897;SDS011;32646;50.958;6.258;2023-07-16T04:44:54;4.68;;;1.70;;
46897;SDS011;32646;50.958;6.258;2023-07-16T04:47:21;4.95;;;1.48;;
46897;SDS011;32646;50.958;6.258;2023-07-16T04:49:47;5.70;;;1.63;;
46897;SDS011;32646;50.958;6.258;2023-07-16T04:52:14;6.50;;;1.77;;
46897;SDS011;32646;50.958;6.258;2023-07-16T04:54:40;5.25;;;2.13;;
46897;SDS011;32646;50.958;6.258;2023-07-16T04:57:07;4.72;;;1.77;;
46897;SDS011;32646;50.958;6.258;2023-07-16T04:59:34;10.13;;;2.22;;
46897;SDS011;32646;50.958;6.258;2023-07-16T05:02:04;6.07;;;1.85;;
46897;SDS011;32646;50.958;6.258;2023-07-16T05:04:33;6.15;;;1.77;;
46897;SDS011;32646;50.958;6.258;2023-07-16T05:07:03;4.28;;;1.58;;
46897;SDS011;32646;50.958;6.258;2023-07-16T05:09:30;7.00;;;2.10;;
46897;SDS011;32646;50.958;6.258;2023-07-16T05:11:57;4.80;;;1.50;;
46897;SDS011;32646;50.958;6.258;2023-07-16T05:14:26;8.98;;;1.90;;
46897;SDS011;32646;50.958;6.258;2023-07-16T05:16:54;7.40;;;2.22;;
46897;SDS011;32646;50.958;6.258;2023-07-16T05:19:21;6.32;;;1.80;;
46897;SDS011;32646;50.958;6.258;2023-07-16T05:21:48;5.15;;;1.85;;
46897;SDS011;32646;50.958;6.258;2023-07-16T05:24:15;7.82;;;1.92;;
46897;SDS011;32646;50.958;6.258;2023-07-16T05:26:41;6.85;;;1.77;;
46897;SDS011;32646;50.958;6.258;2023-07-16T05:29:08;7.03;;;2.33;;
46897;SDS011;32646;50.958;6.258;2023-07-16T05:31:35;6.55;;;1.70;;
46897;SDS011;32646;50.958;6.258;2023-07-16T05:34:01;6.15;;;1.92;;
46897;SDS011;32646;50.958;6.258;2023-07-16T05:36:28;6.88;;;2.22;;
46897;SDS011;32646;50.958;6.258;2023-07-16T05:38:54;6.60;;;2.58;;
46897;SDS011;32646;50.958;6.258;2023-07-16T05:41:21;6.50;;;2.10;;
46897;SDS011;32646;50.958;6.258;2023-07-16T05:43:49;8.75;;;2.03;;
46897;SDS011;32646;50.958;6.258;2023-07-16T05:46:16;6.72;;;2.30;;
46897;SDS011;32646;50.958;6.258;2023-07-16T05:48:43;6.13;;;2.35;;
46897;SDS011;32646;50.958;6.258;2023-07-16T05:51:10;5.85;;;2.20;;
46897;SDS011;32646;50.958;6.258;2023-07-16T05:53:36;6.25;;;1.98;;
46897;SDS011;32646;50.958;6.258;2023-07-16T05:56:03;7.82;;;2.10;;
46897;SDS011;32646;50.958;6.258;2023-07-16T05:58:29;5.70;;;1.85;;
46897;SDS011;32646;50.958;6.258;2023-07-16T06:00:56;7.28;;;2.53;;
46897;SDS011;32646;50.958;6.258;2023-07-16T06:03:22;6.65;;;2.42;;
46897;SDS011;32646;50.958;6.258;2023-07-16T06:05:49;7.88;;;2.75;;
46897;SDS011;32646;50.958;6.258;2023-07-16T06:08:16;8.57;;;2.45;;
46897;SDS011;32646;50.958;6.258;2023-07-16T06:10:42;10.63;;;2.40;;
46897;SDS011;32646;50.958;6.258;2023-07-16T06:13:09;5.30;;;2.30;;
46897;SDS011;32646;50.958;6.258;2023-07-16T06:15:36;5.32;;;2.00;;
46897;SDS011;32646;50.958;6.258;2023-07-16T06:18:02;7.78;;;2.58;;
46897;SDS011;32646;50.958;6.258;2023-07-16T06:20:29;6.88;;;2.35;;
46897;SDS011;32646;50.958;6.258;2023-07-16T06:22:56;8.93;;;2.70;;
46897;SDS011;32646;50.958;6.258;2023-07-16T06:25:22;7.90;;;2.35;;
46897;SDS011;32646;50.958;6.258;2023-07-16T06:27:49;10.40;;;2.38;;
46897;SDS011;32646;50.958;6.258;2023-07-16T06:30:16;7.22;;;2.40;;
46897;SDS011;32646;50.958;6.258;2023-07-16T06:32:42;8.43;;;2.97;;
46897;SDS011;32646;50.958;6.258;2023-07-16T06:35:09;8.30;;;2.83;;
46897;SDS011;32646;50.958;6.258;2023-07-16T06:37:35;9.35;;;2.85;;
46897;SDS011;32646;50.958;6.258;2023-07-16T06:40:02;6.20;;;2.30;;
46897;SDS011;32646;50.958;6.258;2023-07-16T06:42:29;6.82;;;2.60;;
46897;SDS011;32646;50.958;6.258;2023-07-16T06:44:56;6.28;;;2.20;;
46897;SDS011;32646;50.958;6.258;2023-07-16T06:47:22;6.88;;;2.15;;
46897;SDS011;32646;50.958;6.258;2023-07-16T06:49:49;8.05;;;2.40;;
46897;SDS011;32646;50.958;6.258;2023-07-16T06:52:22;8.85;;;2.55;;
46897;SDS011;32646;50.958;6.258;2023-07-16T06:54:50;8.80;;;2.67;;
46897;SDS011;32646;50.958;6.258;2023-07-16T06:57:16;7.50;;;2.17;;
46897;SDS011;32646;50.958;6.258;2023-07-16T06:59:43;6.60;;;2.35;;
46897;SDS011;32646;50.958;6.258;2023-07-16T07:02:10;7.88;;;2.35;;
46897;SDS011;32646;50.958;6.258;2023-07-16T07:04:37;6.35;;;2.38;;
46897;SDS011;32646;50.958;6.258;2023-07-16T07:07:04;8.73;;;2.92;;
46897;SDS011;32646;50.958;6.258;2023-07-16T07:09:31;5.93;;;2.05;;
46897;SDS011;32646;50.958;6.258;2023-07-16T07:11:57;7.32;;;2.53;;
46897;SDS011;32646;50.958;6.258;2023-07-16T07:14:24;6.53;;;2.33;;
46897;SDS011;32646;50.958;6.258;2023-07-16T07:16:50;6.93;;;2.65;;
46897;SDS011;32646;50.958;6.258;2023-07-16T07:19:17;8.02;;;2.88;;
46897;SDS011;32646;50.958;6.258;2023-07-16T07:21:43;4.72;;;2.22;;
46897;SDS011;32646;50.958;6.258;2023-07-16T07:24:10;11.35;;;2.22;;
46897;SDS011;32646;50.958;6.258;2023-07-16T07:26:37;9.20;;;2.38;;
46897;SDS011;32646;50.958;6.258;2023-07-16T07:29:03;6.70;;;2.40;;
46897;SDS011;32646;50.958;6.258;2023-07-16T07:31:30;5.97;;;2.85;;
46897;SDS011;32646;50.958;6.258;2023-07-16T07:33:56;6.80;;;2.13;;
46897;SDS011;32646;50.958;6.258;2023-07-16T07:36:23;5.97;;;1.90;;
46897;SDS011;32646;50.958;6.258;2023-07-16T07:38:50;6.93;;;2.75;;
46897;SDS011;32646;50.958;6.258;2023-07-16T07:41:16;5.30;;;2.13;;
46897;SDS011;32646;50.958;6.258;2023-07-16T07:43:43;5.85;;;2.33;;
46897;SDS011;32646;50.958;6.258;2023-07-16T07:46:09;6.63;;;2.00;;
46897;SDS011;32646;50.958;6.258;2023-07-16T07:48:36;5.28;;;2.00;;
46897;SDS011;32646;50.958;6.258;2023-07-16T07:51:03;6.22;;;2.10;;
46897;SDS011;32646;50.958;6.258;2023-07-16T07:53:29;9.85;;;2.40;;
46897;SDS011;32646;50.958;6.258;2023-07-16T07:55:56;9.02;;;2.63;;
46897;SDS011;32646;50.958;6.258;2023-07-16T07:58:23;7.15;;;2.53;;
46897;SDS011;32646;50.958;6.258;2023-07-16T08:00:49;6.43;;;1.85;;
46897;SDS011;32646;50.958;6.258;2023-07-16T08:03:16;6.30;;;1.88;;
46897;SDS011;32646;50.958;6.258;2023-07-16T08:05:43;4.22;;;1.85;;
46897;SDS011;32646;50.958;6.258;2023-07-16T08:08:09;7.10;;;2.40;;
46897;SDS011;32646;50.958;6.258;2023-07-16T08:10:36;4.95;;;2.22;;
46897;SDS011;32646;50.958;6.258;2023-07-16T08:13:02;5.93;;;2.45;;
46897;SDS011;32646;50.958;6.258;2023-07-16T08:15:29;6.28;;;2.15;;
46897;SDS011;32646;50.958;6.258;2023-07-16T08:17:56;6.20;;;2.38;;
46897;SDS011;32646;50.958;6.258;2023-07-16T08:20:22;6.63;;;2.13;;
46897;SDS011;32646;50.958;6.258;2023-07-16T08:22:49;9.80;;;2.67;;
46897;SDS011;32646;50.958;6.258;2023-07-16T08:25:16;8.38;;;1.90;;
46897;SDS011;32646;50.958;6.258;2023-07-16T08:27:42;8.13;;;2.80;;
46897;SDS011;32646;50.958;6.258;2023-07-16T08:30:09;6.95;;;2.05;;
46897;SDS011;32646;50.958;6.258;2023-07-16T08:32:36;5.35;;;2.00;;
46897;SDS011;32646;50.958;6.258;2023-07-16T08:35:02;7.10;;;2.33;;
46897;SDS011;32646;50.958;6.258;2023-07-16T08:37:29;6.22;;;2.10;;
46897;SDS011;32646;50.958;6.258;2023-07-16T08:39:56;5.38;;;2.17;;
46897;SDS011;32646;50.958;6.258;2023-07-16T08:42:22;8.20;;;2.80;;
46897;SDS011;32646;50.958;6.258;2023-07-16T08:44:50;6.93;;;2.60;;
46897;SDS011;32646;50.958;6.258;2023-07-16T08:47:16;8.13;;;2.30;;
46897;SDS011;32646;50.958;6.258;2023-07-16T08:49:48;8.02;;;2.70;;
46897;SDS011;32646;50.958;6.258;2023-07-16T08:52:20;7.47;;;2.42;;
46897;SDS011;32646;50.958;6.258;2023-07-16T08:54:46;6.50;;;2.08;;
46897;SDS011;32646;50.958;6.258;2023-07-16T08:57:14;8.07;;;2.10;;
46897;SDS011;32646;50.958;6.258;2023-07-16T08:59:40;8.48;;;2.40;;
46897;SDS011;32646;50.958;6.258;2023-07-16T09:02:08;7.22;;;2.28;;
46897;SDS011;32646;50.958;6.258;2023-07-16T09:04:35;7.07;;;2.67;;
46897;SDS011;32646;50.958;6.258;2023-07-16T09:07:02;6.95;;;2.63;;
46897;SDS011;32646;50.958;6.258;2023-07-16T09:09:28;6.72;;;2.05;;
46897;SDS011;32646;50.958;6.258;2023-07-16T09:11:55;6.88;;;2.15;;
46897;SDS011;32646;50.958;6.258;2023-07-16T09:14:22;7.70;;;2.67;;
46897;SDS011;32646;50.958;6.258;2023-07-16T09:16:49;7.30;;;2.38;;
46897;SDS011;32646;50.958;6.258;2023-07-16T09:19:20;9.63;;;2.30;;
46897;SDS011;32646;50.958;6.258;2023-07-16T09:21:48;5.50;;;1.98;;
46897;SDS011;32646;50.958;6.258;2023-07-16T09:24:15;6.68;;;2.70;;
46897;SDS011;32646;50.958;6.258;2023-07-16T09:26:50;6.18;;;1.83;;
46897;SDS011;32646;50.958;6.258;2023-07-16T09:29:17;5.43;;;2.10;;
46897;SDS011;32646;50.958;6.258;2023-07-16T09:32:00;7.45;;;2.30;;
46897;SDS011;32646;50.958;6.258;2023-07-16T09:34:28;7.22;;;2.22;;
46897;SDS011;32646;50.958;6.258;2023-07-16T09:36:56;5.20;;;1.98;;
46897;SDS011;32646;50.958;6.258;2023-07-16T09:39:23;7.15;;;2.08;;
46897;SDS011;32646;50.958;6.258;2023-07-16T09:41:52;6.85;;;2.53;;
46897;SDS011;32646;50.958;6.258;2023-07-16T09:44:18;4.22;;;1.90;;
46897;SDS011;32646;50.958;6.258;2023-07-16T09:46:47;7.57;;;2.10;;
46897;SDS011;32646;50.958;6.258;2023-07-16T09:49:14;5.43;;;2.20;;
46897;SDS011;32646;50.958;6.258;2023-07-16T09:51:42;7.10;;;2.55;;
46897;SDS011;32646;50.958;6.258;2023-07-16T09:54:12;7.10;;;2.50;;
46897;SDS011;32646;50.958;6.258;2023-07-16T09:56:49;4.60;;;1.88;;
46897;SDS011;32646;50.958;6.258;2023-07-16T09:59:22;6.70;;;1.90;;
46897;SDS011;32646;50.958;6.258;2023-07-16T10:04:18;5.60;;;1.70;;
46897;SDS011;32646;50.958;6.258;2023-07-16T10:06:48;5.50;;;1.85;;
46897;SDS011;32646;50.958;6.258;2023-07-16T10:09:31;6.53;;;2.10;;
46897;SDS011;32646;50.958;6.258;2023-07-16T10:12:11;6.35;;;2.30;;
46897;SDS011;32646;50.958;6.258;2023-07-16T10:14:43;6.00;;;2.17;;
46897;SDS011;32646;50.958;6.258;2023-07-16T10:17:14;5.07;;;2.03;;
46897;SDS011;32646;50.958;6.258;2023-07-16T10:19:45;6.28;;;2.17;;
46897;SDS011;32646;50.958;6.258;2023-07-16T10:22:43;6.75;;;2.17;;
46897;SDS011;32646;50.958;6.258;2023-07-16T10:27:48;5.90;;;2.20;;
46897;SDS011;32646;50.958;6.258;2023-07-16T10:30:16;5.03;;;1.80;;
46897;SDS011;32646;50.958;6.258;2023-07-16T10:32:44;5.00;;;1.70;;
46897;SDS011;32646;50.958;6.258;2023-07-16T10:35:11;4.50;;;1.73;;
46897;SDS011;32646;50.958;6.258;2023-07-16T10:37:38;6.20;;;2.20;;
46897;SDS011;32646;50.958;6.258;2023-07-16T10:40:09;8.32;;;2.00;;
46897;SDS011;32646;50.958;6.258;2023-07-16T10:42:37;5.30;;;1.73;;
46897;SDS011;32646;50.958;6.258;2023-07-16T10:45:06;4.45;;;1.50;;
46897;SDS011;32646;50.958;6.258;2023-07-16T10:47:34;6.30;;;1.73;;
46897;SDS011;32646;50.958;6.258;2023-07-16T10:50:06;7.07;;;2.00;;
46897;SDS011;32646;50.958;6.258;2023-07-16T10:52:34;8.77;;;2.15;;
46897;SDS011;32646;50.958;6.258;2023-07-16T10:55:02;4.97;;;1.67;;
46897;SDS011;32646;50.958;6.258;2023-07-16T10:57:29;5.03;;;1.70;;
46897;SDS011;32646;50.958;6.258;2023-07-16T10:59:56;5.68;;;1.50;;
46897;SDS011;32646;50.958;6.258;2023-07-16T11:02:25;7.95;;;1.40;;
46897;SDS011;32646;50.958;6.258;2023-07-16T11:04:52;4.68;;;1.80;;
46897;SDS011;32646;50.958;6.258;2023-07-16T11:07:19;3.90;;;1.65;;
46897;SDS011;32646;50.958;6.258;2023-07-16T11:09:47;4.85;;;1.70;;
46897;SDS011;32646;50.958;6.258;2023-07-16T11:12:16;4.93;;;2.00;;
46897;SDS011;32646;50.958;6.258;2023-07-16T11:14:45;6.25;;;1.95;;
46897;SDS011;32646;50.958;6.258;2023-07-16T11:19:48;5.50;;;1.98;;
46897;SDS011;32646;50.958;6.258;2023-07-16T11:22:15;5.55;;;1.88;;
46897;SDS011;32646;50.958;6.258;2023-07-16T11:24:46;6.93;;;1.88;;
46897;SDS011;32646;50.958;6.258;2023-07-16T11:27:15;7.38;;;1.70;;
46897;SDS011;32646;50.958;6.258;2023-07-16T11:29:46;7.25;;;2.08;;
46897;SDS011;32646;50.958;6.258;2023-07-16T11:32:25;6.55;;;2.00;;
46897;SDS011;32646;50.958;6.258;2023-07-16T11:34:58;5.47;;;1.98;;
46897;SDS011;32646;50.958;6.258;2023-07-16T11:37:27;4.03;;;1.60;;
46897;SDS011;32646;50.958;6.258;2023-07-16T11:39:55;4.82;;;1.92;;
46897;SDS011;32646;50.958;6.258;2023-07-16T11:42:36;4.63;;;1.92;;
46897;SDS011;32646;50.958;6.258;2023-07-16T11:45:04;5.28;;;1.95;;
46897;SDS011;32646;50.958;6.258;2023-07-16T11:47:40;5.85;;;2.05;;
46897;SDS011;32646;50.958;6.258;2023-07-16T11:50:10;3.92;;;1.40;;
46897;SDS011;32646;50.958;6.258;2023-07-16T11:52:36;6.22;;;1.95;;
46897;SDS011;32646;50.958;6.258;2023-07-16T11:55:05;5.40;;;1.67;;
46897;SDS011;32646;50.958;6.258;2023-07-16T11:57:32;4.32;;;1.92;;
46897;SDS011;32646;50.958;6.258;2023-07-16T11:59:58;5.30;;;1.60;;
46897;SDS011;32646;50.958;6.258;2023-07-16T12:02:25;5.43;;;2.10;;
46897;SDS011;32646;50.958;6.258;2023-07-16T12:04:52;5.32;;;1.90;;
46897;SDS011;32646;50.958;6.258;2023-07-16T12:07:32;5.57;;;1.50;;
46897;SDS011;32646;50.958;6.258;2023-07-16T12:10:03;5.88;;;1.85;;
46897;SDS011;32646;50.958;6.258;2023-07-16T12:12:32;5.80;;;2.17;;
46897;SDS011;32646;50.958;6.258;2023-07-16T12:14:59;5.55;;;1.80;;
46897;SDS011;32646;50.958;6.258;2023-07-16T12:17:26;5.13;;;1.80;;
46897;SDS011;32646;50.958;6.258;2023-07-16T12:19:53;5.22;;;1.75;;
46897;SDS011;32646;50.958;6.258;2023-07-16T12:22:20;4.68;;;1.70;;
46897;SDS011;32646;50.958;6.258;2023-07-16T12:24:47;6.68;;;2.20;;
46897;SDS011;32646;50.958;6.258;2023-07-16T12:27:14;4.18;;;1.48;;
46897;SDS011;32646;50.958;6.258;2023-07-16T12:29:41;4.50;;;1.50;;
46897;SDS011;32646;50.958;6.258;2023-07-16T12:32:08;5.75;;;1.80;;
46897;SDS011;32646;50.958;6.258;2023-07-16T12:34:35;5.55;;;1.70;;
46897;SDS011;32646;50.958;6.258;2023-07-16T12:37:03;6.55;;;2.03;;
46897;SDS011;32646;50.958;6.258;2023-07-16T12:39:29;4.60;;;1.67;;
46897;SDS011;32646;50.958;6.258;2023-07-16T12:41:56;4.90;;;1.67;;
46897;SDS011;32646;50.958;6.258;2023-07-16T12:44:23;4.32;;;1.45;;
46897;SDS011;32646;50.958;6.258;2023-07-16T12:46:49;4.00;;;1.50;;
46897;SDS011;32646;50.958;6.258;2023-07-16T12:49:17;5.57;;;1.63;;
46897;SDS011;32646;50.958;6.258;2023-07-16T12:51:45;6.65;;;1.92;;
46897;SDS011;32646;50.958;6.258;2023-07-16T12:54:15;4.40;;;1.65;;
46897;SDS011;32646;50.958;6.258;2023-07-16T12:56:41;4.70;;;1.75;;
46897;SDS011;32646;50.958;6.258;2023-07-16T12:59:08;3.70;;;1.60;;
46897;SDS011;32646;50.958;6.258;2023-07-16T13:01:35;6.60;;;1.67;;
46897;SDS011;32646;50.958;6.258;2023-07-16T13:04:01;4.95;;;1.63;;
46897;SDS011;32646;50.958;6.258;2023-07-16T13:06:28;7.30;;;1.30;;
46897;SDS011;32646;50.958;6.258;2023-07-16T13:08:55;4.75;;;1.90;;
46897;SDS011;32646;50.958;6.258;2023-07-16T13:11:21;5.10;;;1.90;;
46897;SDS011;32646;50.958;6.258;2023-07-16T13:13:50;6.53;;;1.80;;
46897;SDS011;32646;50.958;6.258;2023-07-16T13:16:17;4.97;;;1.80;;
46897;SDS011;32646;50.958;6.258;2023-07-16T13:18:44;5.25;;;2.05;;
46897;SDS011;32646;50.958;6.258;2023-07-16T13:21:11;3.88;;;2.30;;
46897;SDS011;32646;50.958;6.258;2023-07-16T13:23:37;4.47;;;1.65;;
46897;SDS011;32646;50.958;6.258;2023-07-16T13:26:04;5.07;;;1.55;;
46897;SDS011;32646;50.958;6.258;2023-07-16T13:28:31;5.38;;;1.70;;
46897;SDS011;32646;50.958;6.258;2023-07-16T13:30:57;3.85;;;1.50;;
46897;SDS011;32646;50.958;6.258;2023-07-16T13:33:24;4.53;;;1.40;;
46897;SDS011;32646;50.958;6.258;2023-07-16T13:35:51;4.90;;;1.55;;
46897;SDS011;32646;50.958;6.258;2023-07-16T13:38:17;6.05;;;1.70;;
46897;SDS011;32646;50.958;6.258;2023-07-16T13:40:44;4.25;;;1.38;;
46897;SDS011;32646;50.958;6.258;2023-07-16T13:43:10;3.72;;;1.40;;
46897;SDS011;32646;50.958;6.258;2023-07-16T13:45:38;3.83;;;1.55;;
46897;SDS011;32646;50.958;6.258;2023-07-16T13:48:05;5.47;;;1.80;;
46897;SDS011;32646;50.958;6.258;2023-07-16T13:50:32;3.97;;;1.50;;
46897;SDS011;32646;50.958;6.258;2023-07-16T13:52:58;4.65;;;1.50;;
46897;SDS011;32646;50.958;6.258;2023-07-16T13:55:25;4.70;;;1.65;;
46897;SDS011;32646;50.958;6.258;2023-07-16T13:57:51;7.43;;;1.67;;
46897;SDS011;32646;50.958;6.258;2023-07-16T14:00:18;3.97;;;1.55;;
46897;SDS011;32646;50.958;6.258;2023-07-16T14:02:45;5.45;;;1.45;;
46897;SDS011;32646;50.958;6.258;2023-07-16T14:05:11;4.40;;;1.38;;
46897;SDS011;32646;50.958;6.258;2023-07-16T14:07:38;6.25;;;1.83;;
46897;SDS011;32646;50.958;6.258;2023-07-16T14:10:05;7.22;;;1.88;;
46897;SDS011;32646;50.958;6.258;2023-07-16T14:12:33;6.80;;;2.05;;
46897;SDS011;32646;50.958;6.258;2023-07-16T14:14:59;4.60;;;1.77;;
46897;SDS011;32646;50.958;6.258;2023-07-16T14:17:26;5.35;;;2.15;;
46897;SDS011;32646;50.958;6.258;2023-07-16T14:19:53;5.07;;;1.85;;
46897;SDS011;32646;50.958;6.258;2023-07-16T14:22:20;4.28;;;1.60;;
46897;SDS011;32646;50.958;6.258;2023-07-16T14:24:46;7.40;;;2.03;;
46897;SDS011;32646;50.958;6.258;2023-07-16T14:27:13;5.47;;;1.90;;
46897;SDS011;32646;50.958;6.258;2023-07-16T14:29:40;5.03;;;1.90;;
46897;SDS011;32646;50.958;6.258;2023-07-16T14:32:24;4.32;;;1.75;;
46897;SDS011;32646;50.958;6.258;2023-07-16T14:34:51;4.85;;;1.70;;
46897;SDS011;32646;50.958;6.258;2023-07-16T14:37:17;3.90;;;1.77;;
46897;SDS011;32646;50.958;6.258;2023-07-16T14:39:44;3.42;;;1.52;;
46897;SDS011;32646;50.958;6.258;2023-07-16T14:42:11;5.32;;;1.50;;
46897;SDS011;32646;50.958;6.258;2023-07-16T14:44:37;6.28;;;1.55;;
46897;SDS011;32646;50.958;6.258;2023-07-16T14:47:04;5.50;;;1.80;;
46897;SDS011;32646;50.958;6.258;2023-07-16T14:49:30;7.32;;;1.77;;
46897;SDS011;32646;50.958;6.258;2023-07-16T14:51:57;4.75;;;1.98;;
46897;SDS011;32646;50.958;6.258;2023-07-16T14:54:23;5.50;;;2.03;;
46897;SDS011;32646;50.958;6.258;2023-07-16T14:56:50;4.22;;;1.67;;
46897;SDS011;32646;50.958;6.258;2023-07-16T14:59:17;4.10;;;1.70;;
46897;SDS011;32646;50.958;6.258;2023-07-16T15:01:43;8.32;;;2.00;;